createdAt,value
2019-03-22T00:00:14.817Z,87.41
2019-03-22T00:02:43.252Z,87.49
2019-03-22T00:05:11.717Z,88.08
2019-03-22T00:07:40.155Z,88.46
2019-03-22T00:10:08.985Z,88.35
2019-03-22T00:12:37.404Z,88.50
2019-03-22T00:15:07.855Z,88.37
2019-03-22T00:17:36.274Z,88.31
2019-03-22T00:20:06.769Z,88.18
2019-03-22T00:22:35.199Z,88.19
2019-03-22T00:25:05.603Z,87.72
2019-03-22T00:27:34.107Z,87.83
2019-03-22T00:30:02.588Z,87.92
2019-03-22T00:32:31.006Z,87.33
2019-03-22T00:34:59.413Z,87.96
2019-03-22T00:37:27.850Z,87.87
2019-03-22T00:39:56.286Z,88.14
2019-03-22T00:42:24.691Z,87.66
2019-03-22T00:44:53.110Z,87.33
2019-03-22T00:47:21.518Z,87.73
2019-03-22T00:49:49.925Z,88.06
2019-03-22T00:52:18.350Z,87.83
2019-03-22T00:54:46.787Z,88.01
2019-03-22T00:57:15.209Z,87.93
2019-03-22T00:59:43.687Z,88.00
2019-03-22T01:02:12.109Z,88.17
2019-03-22T01:04:40.588Z,87.95
2019-03-22T01:07:09.087Z,87.70
2019-03-22T01:09:37.522Z,87.30
2019-03-22T01:12:06.014Z,87.87
2019-03-22T01:14:34.486Z,87.97
2019-03-22T01:17:03.050Z,87.75
2019-03-22T01:19:31.457Z,87.75
2019-03-22T01:21:59.867Z,87.69
2019-03-22T01:24:31.160Z,87.65
2019-03-22T01:26:59.616Z,88.20
2019-03-22T01:29:28.090Z,88.29
2019-03-22T01:31:56.511Z,87.88
2019-03-22T01:34:24.910Z,88.22
2019-03-22T01:36:53.597Z,88.35
2019-03-22T01:39:22.130Z,87.88
2019-03-22T01:41:50.586Z,88.19
2019-03-22T01:44:18.991Z,88.28
2019-03-22T01:46:47.403Z,87.97
2019-03-22T01:49:15.826Z,88.22
2019-03-22T01:51:44.229Z,88.01
2019-03-22T01:54:12.635Z,88.02
2019-03-22T01:56:41.087Z,88.77
2019-03-22T01:59:09.526Z,88.58
2019-03-22T02:01:37.920Z,88.30
2019-03-22T02:04:06.330Z,88.97
2019-03-22T02:06:34.746Z,89.04
2019-03-22T02:09:03.838Z,88.79
2019-03-22T02:11:32.259Z,89.20
2019-03-22T02:14:00.681Z,89.11
2019-03-22T02:16:29.092Z,89.01
2019-03-22T02:18:57.496Z,88.20
2019-03-22T02:21:25.914Z,88.66
2019-03-22T02:23:54.315Z,88.60
2019-03-22T02:26:22.713Z,88.95
2019-03-22T02:28:51.115Z,88.45
2019-03-22T02:34:07.429Z,89.40
2019-03-22T02:36:35.850Z,88.29
2019-03-22T02:39:06.204Z,89.01
2019-03-22T02:41:34.703Z,88.95
2019-03-22T02:44:03.162Z,88.81
2019-03-22T02:46:31.551Z,89.48
2019-03-22T02:48:59.964Z,89.00
2019-03-22T02:51:28.413Z,89.52
2019-03-22T02:53:56.796Z,88.18
2019-03-22T02:56:25.230Z,89.30
2019-03-22T02:58:53.615Z,88.97
2019-03-22T03:01:22.136Z,88.55
2019-03-22T03:03:50.535Z,89.23
2019-03-22T03:06:18.960Z,89.61
2019-03-22T03:08:47.346Z,89.79
2019-03-22T03:11:15.744Z,90.04
2019-03-22T03:13:44.190Z,89.92
2019-03-22T03:16:12.613Z,89.31
2019-03-22T03:18:41.010Z,89.35
2019-03-22T03:21:09.502Z,89.76
2019-03-22T03:23:37.983Z,89.09
2019-03-22T03:26:06.529Z,89.13
2019-03-22T03:28:37.233Z,89.32
2019-03-22T03:31:05.157Z,89.61
2019-03-22T03:33:35.644Z,89.46
2019-03-22T03:36:03.910Z,89.30
2019-03-22T03:38:32.405Z,90.00
2019-03-22T03:41:00.807Z,89.86
2019-03-22T03:43:29.227Z,89.74
2019-03-22T03:45:57.630Z,89.81
2019-03-22T03:48:26.060Z,90.27
2019-03-22T03:50:54.487Z,89.78
2019-03-22T03:53:22.929Z,89.60
2019-03-22T03:55:51.396Z,89.97
2019-03-22T03:58:19.830Z,89.71
2019-03-22T04:00:48.242Z,89.45
2019-03-22T04:03:16.646Z,90.09
2019-03-22T04:05:45.068Z,89.92
2019-03-22T04:08:13.472Z,90.03
2019-03-22T04:10:41.886Z,90.17
2019-03-22T04:13:10.281Z,90.64
2019-03-22T04:15:38.718Z,90.65
2019-03-22T04:18:07.119Z,90.45
2019-03-22T04:20:35.565Z,90.17
2019-03-22T04:23:04.033Z,90.22
2019-03-22T04:25:32.541Z,90.12
2019-03-22T04:28:00.977Z,90.72
2019-03-22T04:30:29.403Z,90.82
2019-03-22T04:32:57.849Z,90.90
2019-03-22T04:35:26.227Z,89.80
2019-03-22T04:37:54.619Z,90.20
2019-03-22T04:40:32.085Z,90.23
2019-03-22T04:43:00.511Z,90.68
2019-03-22T04:45:31.561Z,91.10
2019-03-22T04:48:08.798Z,91.25
2019-03-22T04:50:40.522Z,91.09
2019-03-22T04:53:11.978Z,90.90
2019-03-22T04:55:43.584Z,90.62
2019-03-22T04:58:14.437Z,90.75
2019-03-22T05:00:43.670Z,90.94
2019-03-22T05:03:13.435Z,91.04
2019-03-22T05:05:42.988Z,90.92
2019-03-22T05:08:11.534Z,90.91
2019-03-22T05:10:40.397Z,91.05
2019-03-22T05:13:11.515Z,91.01
2019-03-22T05:15:40.765Z,91.11
2019-03-22T05:18:09.525Z,90.54
2019-03-22T05:20:39.974Z,90.02
2019-03-22T05:23:09.617Z,90.48
2019-03-22T05:25:38.673Z,90.67
2019-03-22T05:28:09.534Z,90.97
2019-03-22T05:31:05.204Z,91.03
2019-03-22T05:33:33.591Z,91.36
2019-03-22T05:36:02.034Z,91.56
2019-03-22T05:38:30.449Z,91.88
2019-03-22T05:40:58.870Z,91.96
2019-03-22T05:43:27.430Z,91.91
2019-03-22T05:45:55.919Z,91.95
2019-03-22T05:48:24.333Z,91.98
2019-03-22T05:50:52.741Z,91.77
2019-03-22T05:53:21.232Z,91.89
2019-03-22T05:55:49.647Z,91.77
2019-03-22T05:58:18.260Z,91.63
2019-03-22T06:00:46.665Z,91.00
2019-03-22T06:03:15.163Z,91.19
2019-03-22T06:05:43.583Z,91.15
2019-03-22T06:08:12.091Z,91.39
2019-03-22T06:10:40.529Z,91.58
2019-03-22T06:13:08.937Z,91.40
2019-03-22T06:15:37.432Z,91.44
2019-03-22T06:18:05.873Z,91.53
2019-03-22T06:20:34.298Z,92.25
2019-03-22T06:23:02.690Z,92.39
2019-03-22T06:25:31.123Z,92.36
2019-03-22T06:27:59.524Z,91.93
2019-03-22T06:30:27.936Z,91.50
2019-03-22T06:32:56.376Z,91.59
2019-03-22T06:35:24.842Z,91.92
2019-03-22T06:37:53.270Z,92.14
2019-03-22T06:40:21.748Z,91.99
2019-03-22T06:42:50.153Z,92.18
2019-03-22T06:45:18.558Z,92.19
2019-03-22T06:47:46.990Z,92.09
2019-03-22T06:50:15.469Z,92.07
2019-03-22T06:52:43.914Z,92.00
2019-03-22T06:55:12.462Z,92.22
2019-03-22T06:57:40.950Z,92.43
2019-03-22T07:00:12.054Z,92.53
2019-03-22T07:02:40.431Z,92.63
2019-03-22T07:05:08.940Z,92.94
2019-03-22T07:07:37.347Z,92.76
2019-03-22T07:10:06.987Z,92.56
2019-03-22T07:12:35.483Z,92.52
2019-03-22T07:15:06.173Z,92.73
2019-03-22T07:17:34.670Z,92.66
2019-03-22T07:20:03.249Z,92.70
2019-03-22T07:22:31.677Z,92.59
2019-03-22T07:25:00.266Z,92.92
2019-03-22T07:27:28.789Z,92.80
2019-03-22T07:29:57.243Z,92.80
2019-03-22T07:32:25.658Z,92.82
2019-03-22T07:34:54.234Z,92.85
2019-03-22T07:37:22.657Z,92.71
2019-03-22T07:39:51.093Z,92.63
2019-03-22T07:42:19.508Z,92.54
2019-03-22T07:44:47.910Z,92.52
2019-03-22T07:47:16.366Z,92.40
2019-03-22T07:49:44.767Z,92.38
2019-03-22T07:52:13.201Z,92.29
2019-03-22T07:54:41.695Z,92.17
2019-03-22T07:57:10.135Z,92.25
2019-03-22T07:59:38.548Z,92.24
2019-03-22T08:02:08.000Z,92.27
2019-03-22T08:04:36.446Z,92.37
2019-03-22T08:07:04.907Z,92.47
2019-03-22T08:09:33.339Z,92.53
2019-03-22T08:12:02.174Z,92.50
2019-03-22T08:14:30.567Z,91.94
2019-03-22T08:16:58.991Z,91.70
2019-03-22T08:19:27.444Z,91.68
2019-03-22T08:21:55.817Z,91.69
2019-03-22T08:24:24.253Z,91.80
2019-03-22T08:26:52.664Z,91.85
2019-03-22T08:29:21.077Z,91.71
2019-03-22T08:31:49.569Z,91.42
2019-03-22T08:34:17.976Z,91.13
2019-03-22T08:36:46.410Z,90.76
2019-03-22T08:39:14.807Z,89.59
2019-03-22T08:41:43.232Z,89.46
2019-03-22T08:44:11.640Z,89.00
2019-03-22T08:46:40.041Z,88.58
2019-03-22T08:49:09.637Z,87.83
2019-03-22T08:51:38.200Z,87.52
2019-03-22T08:54:06.692Z,87.66
2019-03-22T08:56:36.235Z,87.63
2019-03-22T08:59:04.827Z,87.21
2019-03-22T09:01:33.231Z,86.39
2019-03-22T09:04:01.636Z,85.70
2019-03-22T09:06:30.183Z,85.76
2019-03-22T09:08:58.552Z,85.53
2019-03-22T09:11:27.013Z,84.22
2019-03-22T09:13:55.605Z,83.48
2019-03-22T09:16:24.102Z,83.81
2019-03-22T09:18:52.539Z,83.23
2019-03-22T09:21:20.926Z,82.67
2019-03-22T09:23:49.500Z,83.03
2019-03-22T09:26:19.988Z,83.30
2019-03-22T09:28:48.115Z,81.61
2019-03-22T09:31:16.576Z,81.91
2019-03-22T09:33:44.994Z,82.54
2019-03-22T09:36:13.539Z,82.48
2019-03-22T09:38:41.936Z,80.77
2019-03-22T09:41:12.538Z,79.36
2019-03-22T09:43:40.960Z,78.28
2019-03-22T09:46:09.443Z,78.95
2019-03-22T09:48:37.922Z,79.67
2019-03-22T09:51:06.290Z,79.49
2019-03-22T09:53:34.720Z,79.92
2019-03-22T09:56:03.251Z,79.89
2019-03-22T09:58:31.676Z,80.24
2019-03-22T10:01:00.195Z,79.63
2019-03-22T10:03:28.575Z,78.68
2019-03-22T10:05:57.009Z,78.72
2019-03-22T10:08:25.448Z,78.49
2019-03-22T10:10:53.902Z,78.07
2019-03-22T10:13:22.293Z,77.59
2019-03-22T10:15:50.814Z,75.74
2019-03-22T10:18:19.193Z,75.52
2019-03-22T10:20:47.650Z,75.54
2019-03-22T10:23:16.052Z,74.14
2019-03-22T10:25:44.588Z,74.34
2019-03-22T10:28:13.003Z,72.00
2019-03-22T10:30:41.429Z,71.41
2019-03-22T10:33:22.077Z,70.83
2019-03-22T10:35:40.067Z,70.42
2019-03-22T10:38:15.956Z,69.83
2019-03-22T10:40:38.662Z,70.41
2019-03-22T10:43:07.080Z,68.24
2019-03-22T10:45:35.553Z,67.25
2019-03-22T10:48:04.011Z,68.07
2019-03-22T10:50:32.459Z,68.65
2019-03-22T10:53:00.914Z,66.85
2019-03-22T10:55:30.702Z,67.27
2019-03-22T10:57:59.417Z,67.48
2019-03-22T11:00:28.223Z,66.19
2019-03-22T11:02:56.644Z,64.61
2019-03-22T11:05:25.093Z,62.57
2019-03-22T11:07:54.457Z,62.40
2019-03-22T11:10:22.859Z,61.39
2019-03-22T11:12:51.297Z,60.22
2019-03-22T11:15:19.705Z,60.93
2019-03-22T11:17:48.145Z,61.70
2019-03-22T11:20:17.269Z,61.32
2019-03-22T11:22:45.762Z,59.90
2019-03-22T11:25:14.293Z,61.23
2019-03-22T11:27:42.716Z,60.96
2019-03-22T11:30:14.456Z,62.42
2019-03-22T11:32:42.880Z,61.99
2019-03-22T11:35:12.326Z,63.09
2019-03-22T11:37:40.792Z,62.07
2019-03-22T11:40:11.665Z,61.85
2019-03-22T11:42:40.073Z,62.24
2019-03-22T11:45:17.429Z,61.20
2019-03-22T11:47:45.845Z,59.83
2019-03-22T11:50:14.509Z,59.34
2019-03-22T11:52:42.922Z,61.04
2019-03-22T11:55:13.275Z,59.37
2019-03-22T11:57:41.681Z,61.39
2019-03-22T12:00:16.228Z,60.47
2019-03-22T12:02:44.699Z,60.83
2019-03-22T12:05:13.979Z,61.69
2019-03-22T12:07:42.374Z,61.32
2019-03-22T12:10:13.335Z,60.34
2019-03-22T12:12:41.760Z,58.76
2019-03-22T12:15:12.725Z,57.82
2019-03-22T12:17:41.218Z,59.39
2019-03-22T12:20:15.966Z,58.46
2019-03-22T12:22:44.486Z,59.60
2019-03-22T12:25:16.098Z,59.52
2019-03-22T12:27:44.625Z,58.87
2019-03-22T12:30:17.501Z,60.14
2019-03-22T12:32:46.430Z,59.72
2019-03-22T12:35:16.868Z,59.44
2019-03-22T12:37:45.529Z,58.43
2019-03-22T12:40:22.355Z,59.55
2019-03-22T12:42:50.921Z,57.74
2019-03-22T12:45:29.940Z,56.50
2019-03-22T12:47:58.415Z,56.16
2019-03-22T12:50:27.386Z,55.62
2019-03-22T12:52:55.946Z,53.58
2019-03-22T12:55:24.503Z,52.38
2019-03-22T12:57:52.990Z,51.40
2019-03-22T13:00:27.436Z,50.60
2019-03-22T13:02:57.211Z,49.88
2019-03-22T13:05:25.763Z,48.01
2019-03-22T13:07:54.262Z,47.33
2019-03-22T13:10:27.680Z,47.30
2019-03-22T13:12:56.185Z,46.54
2019-03-22T13:15:24.694Z,45.80
2019-03-22T13:17:53.144Z,45.87
2019-03-22T13:20:21.717Z,44.91
2019-03-22T13:22:50.142Z,43.60
2019-03-22T13:25:21.020Z,43.46
2019-03-22T13:27:48.869Z,43.28
2019-03-22T13:30:35.362Z,43.24
2019-03-22T13:33:04.633Z,43.10
2019-03-22T13:35:33.065Z,43.25
2019-03-22T13:38:01.736Z,40.48
2019-03-22T13:40:30.233Z,42.42
2019-03-22T13:42:58.724Z,40.37
2019-03-22T13:45:27.198Z,40.42
2019-03-22T13:47:55.713Z,43.61
2019-03-22T13:50:24.666Z,38.50
2019-03-22T13:52:53.081Z,38.38
2019-03-22T13:55:21.578Z,38.66
2019-03-22T13:57:49.983Z,36.24
2019-03-22T14:00:19.169Z,37.95
2019-03-22T14:02:47.561Z,37.40
2019-03-22T14:05:16.033Z,37.31
2019-03-22T14:07:44.472Z,37.79
2019-03-22T14:10:21.810Z,37.90
2019-03-22T14:12:50.258Z,36.63
2019-03-22T14:15:18.643Z,36.36
2019-03-22T14:17:47.062Z,35.80
2019-03-22T14:20:15.481Z,36.61
2019-03-22T14:22:43.907Z,37.13
2019-03-22T14:25:12.382Z,35.91
2019-03-22T14:27:40.797Z,36.29
2019-03-22T14:30:09.773Z,34.37
2019-03-22T14:32:38.328Z,35.84
2019-03-22T14:35:09.503Z,35.82
2019-03-22T14:37:38.006Z,36.95
2019-03-22T14:40:07.038Z,36.63
2019-03-22T14:42:35.522Z,35.44
2019-03-22T14:45:11.315Z,36.17
2019-03-22T14:47:39.730Z,37.18
2019-03-22T14:50:08.502Z,37.74
2019-03-22T14:52:36.974Z,37.78
2019-03-22T14:55:06.825Z,39.07
2019-03-22T14:57:35.308Z,37.42
2019-03-22T15:00:08.419Z,36.34
2019-03-22T15:02:36.833Z,36.72
2019-03-22T15:05:06.710Z,37.62
2019-03-22T15:07:35.105Z,37.50
2019-03-22T15:10:04.780Z,37.48
2019-03-22T15:12:33.198Z,38.03
2019-03-22T15:15:21.449Z,37.45
2019-03-22T15:17:57.139Z,38.77
2019-03-22T15:20:30.220Z,38.65
2019-03-22T15:23:15.289Z,37.15
2019-03-22T15:25:45.365Z,37.84
2019-03-22T15:28:15.449Z,37.45
2019-03-22T15:30:45.535Z,37.12
2019-03-22T15:33:34.321Z,36.70
2019-03-22T15:35:59.628Z,37.85
2019-03-22T15:38:47.708Z,38.53
2019-03-22T15:41:16.356Z,38.98
2019-03-22T15:43:44.790Z,36.71
2019-03-22T15:46:13.265Z,37.08
2019-03-22T15:48:41.664Z,38.09
2019-03-22T15:51:10.096Z,38.55
2019-03-22T15:53:38.522Z,37.73
2019-03-22T15:56:06.948Z,38.37
2019-03-22T15:58:37.027Z,38.35
2019-03-22T16:01:05.581Z,38.79
2019-03-22T16:03:43.815Z,37.80
2019-03-22T16:06:04.197Z,38.52
2019-03-22T16:08:32.699Z,36.81
2019-03-22T16:11:01.108Z,37.32
2019-03-22T16:13:29.544Z,38.32
2019-03-22T16:15:58.040Z,38.85
2019-03-22T16:18:26.440Z,38.67
2019-03-22T16:20:59.957Z,39.84
2019-03-22T16:23:25.005Z,38.13
2019-03-22T16:25:53.427Z,39.29
2019-03-22T16:28:21.857Z,39.56
2019-03-22T16:30:50.262Z,39.47
2019-03-22T16:33:18.684Z,40.42
2019-03-22T16:35:47.118Z,39.08
2019-03-22T16:38:15.603Z,40.23
2019-03-22T16:40:44.101Z,38.74
2019-03-22T16:43:12.720Z,39.48
2019-03-22T16:45:42.659Z,40.31
2019-03-22T16:48:11.237Z,40.75
2019-03-22T16:50:39.825Z,41.04
2019-03-22T16:53:08.413Z,41.35
2019-03-22T16:55:36.924Z,41.44
2019-03-22T16:58:05.870Z,40.80
2019-03-22T17:00:34.949Z,41.10
2019-03-22T17:03:03.611Z,43.73
2019-03-22T17:05:32.039Z,42.08
2019-03-22T17:08:00.506Z,42.02
2019-03-22T17:10:29.004Z,42.79
2019-03-22T17:12:57.469Z,44.62
2019-03-22T17:15:25.921Z,44.00
2019-03-22T17:17:54.375Z,44.34
2019-03-22T17:20:22.828Z,46.34
2019-03-22T17:22:51.225Z,47.15
2019-03-22T17:25:19.651Z,47.47
2019-03-22T17:27:48.186Z,47.98
2019-03-22T17:30:18.272Z,49.18
2019-03-22T17:32:46.787Z,48.86
2019-03-22T17:35:15.333Z,50.58
2019-03-22T17:37:43.872Z,52.59
2019-03-22T17:40:12.249Z,52.66
2019-03-22T17:42:40.657Z,53.82
2019-03-22T17:45:15.640Z,53.91
2019-03-22T17:47:44.092Z,52.85
2019-03-22T17:50:13.972Z,51.81
2019-03-22T17:52:42.622Z,51.99
2019-03-22T17:55:12.099Z,52.37
2019-03-22T17:57:40.616Z,53.36
2019-03-22T18:00:12.071Z,53.84
2019-03-22T18:02:40.507Z,54.46
2019-03-22T18:05:09.738Z,52.76
2019-03-22T18:07:38.273Z,54.39
2019-03-22T18:10:11.062Z,55.03
2019-03-22T18:12:39.618Z,54.05
2019-03-22T18:15:09.979Z,55.39
2019-03-22T18:17:38.462Z,55.45
2019-03-22T18:20:09.930Z,56.87
2019-03-22T18:22:38.430Z,56.31
2019-03-22T18:25:09.143Z,56.91
2019-03-22T18:27:37.528Z,56.83
2019-03-22T18:30:08.287Z,56.60
2019-03-22T18:32:36.714Z,56.91
2019-03-22T18:35:05.783Z,57.30
2019-03-22T18:37:34.264Z,60.05
2019-03-22T18:40:02.659Z,59.12
2019-03-22T18:42:31.389Z,59.57
2019-03-22T18:44:59.861Z,60.33
2019-03-22T18:47:28.294Z,60.89
2019-03-22T18:49:56.715Z,59.47
2019-03-22T18:52:25.254Z,56.77
2019-03-22T18:54:53.663Z,57.75
2019-03-22T18:57:25.245Z,58.58
2019-03-22T18:59:53.649Z,59.13
2019-03-22T19:02:22.058Z,59.46
2019-03-22T19:04:50.459Z,59.76
2019-03-22T19:07:18.887Z,59.73
2019-03-22T19:09:47.312Z,60.70
2019-03-22T19:12:15.755Z,61.13
2019-03-22T19:14:44.467Z,61.12
2019-03-22T19:17:12.864Z,61.72
2019-03-22T19:19:41.292Z,61.64
2019-03-22T19:22:09.720Z,62.58
2019-03-22T19:24:38.130Z,63.46
2019-03-22T19:27:06.619Z,64.10
2019-03-22T19:29:35.129Z,64.76
2019-03-22T19:32:13.152Z,65.60
2019-03-22T19:34:33.849Z,64.54
2019-03-22T19:37:02.266Z,65.02
2019-03-22T19:39:30.786Z,65.31
2019-03-22T19:41:59.181Z,65.85
2019-03-22T19:44:27.720Z,66.09
2019-03-22T19:46:56.285Z,65.81
2019-03-22T19:49:24.703Z,66.71
2019-03-22T19:51:53.201Z,66.60
2019-03-22T19:54:21.614Z,66.90
2019-03-22T19:56:50.062Z,67.21
2019-03-22T19:59:18.537Z,67.26
2019-03-22T20:01:46.968Z,67.37
2019-03-22T20:04:15.379Z,68.12
2019-03-22T20:06:43.879Z,68.42
2019-03-22T20:09:12.406Z,68.40
2019-03-22T20:11:40.941Z,69.31
2019-03-22T20:14:09.417Z,68.92
2019-03-22T20:16:37.837Z,69.80
2019-03-22T20:19:06.254Z,68.34
2019-03-22T20:21:34.875Z,68.71
2019-03-22T20:24:03.285Z,67.86
2019-03-22T20:26:31.711Z,68.24
2019-03-22T20:29:00.142Z,68.76
2019-03-22T20:31:28.556Z,69.18
2019-03-22T20:33:57.036Z,69.15
2019-03-22T20:36:25.442Z,70.41
2019-03-22T20:38:53.853Z,70.74
2019-03-22T20:41:22.277Z,71.09
2019-03-22T20:43:50.700Z,70.79
2019-03-22T20:46:19.122Z,68.67
2019-03-22T20:48:47.550Z,69.13
2019-03-22T20:51:15.964Z,69.73
2019-03-22T20:53:44.473Z,70.82
2019-03-22T20:56:12.880Z,71.79
2019-03-22T20:58:41.299Z,70.70
2019-03-22T21:01:09.813Z,70.74
2019-03-22T21:03:38.222Z,70.91
2019-03-22T21:06:06.768Z,70.33
2019-03-22T21:08:35.268Z,71.14
2019-03-22T21:11:03.785Z,71.51
2019-03-22T21:13:32.155Z,69.92
2019-03-22T21:16:00.648Z,70.68
2019-03-22T21:18:29.060Z,70.08
2019-03-22T21:20:57.500Z,70.26
2019-03-22T21:23:35.759Z,70.60
2019-03-22T21:25:56.078Z,70.55
2019-03-22T21:28:24.518Z,71.20
2019-03-22T21:30:52.937Z,72.52
2019-03-22T21:33:21.347Z,69.93
2019-03-22T21:35:49.754Z,71.53
2019-03-22T21:38:18.150Z,70.03
2019-03-22T21:40:46.597Z,71.17
2019-03-22T21:43:14.997Z,71.50
2019-03-22T21:45:43.447Z,71.37
2019-03-22T21:48:11.837Z,71.37
2019-03-22T21:50:40.288Z,71.15
2019-03-22T21:53:08.702Z,71.05
2019-03-22T21:55:37.413Z,71.10
2019-03-22T21:58:05.809Z,71.60
2019-03-22T22:00:34.249Z,70.92
2019-03-22T22:03:02.674Z,71.40
2019-03-22T22:05:31.080Z,70.94
2019-03-22T22:07:59.522Z,70.74
2019-03-22T22:10:27.919Z,70.69
2019-03-22T22:12:56.372Z,70.11
2019-03-22T22:15:24.810Z,69.88
2019-03-22T22:17:53.185Z,71.09
2019-03-22T22:20:28.927Z,70.45
2019-03-22T22:22:51.828Z,70.69
2019-03-22T22:25:20.233Z,69.92
2019-03-22T22:27:48.644Z,70.64
2019-03-22T22:30:17.147Z,70.39
2019-03-22T22:32:45.569Z,71.50
2019-03-22T22:35:14.648Z,71.74
2019-03-22T22:37:43.141Z,70.46
2019-03-22T22:40:12.894Z,70.53
2019-03-22T22:42:41.373Z,69.77
2019-03-22T22:45:13.116Z,69.90
2019-03-22T22:47:41.560Z,69.56
2019-03-22T22:50:13.131Z,69.44
2019-03-22T22:52:41.536Z,69.96
2019-03-22T22:55:10.408Z,69.75
2019-03-22T22:57:38.824Z,71.03
2019-03-22T23:00:10.269Z,70.52
2019-03-22T23:02:38.689Z,71.03
2019-03-22T23:05:07.167Z,71.68
2019-03-22T23:07:35.700Z,72.41
2019-03-22T23:10:05.867Z,72.79
2019-03-22T23:12:34.456Z,73.29
2019-03-22T23:15:03.151Z,72.92
2019-03-22T23:17:31.535Z,74.04
2019-03-22T23:19:59.967Z,72.73
2019-03-22T23:22:28.383Z,74.51
2019-03-22T23:24:56.853Z,73.34
2019-03-22T23:27:25.342Z,73.15
2019-03-22T23:29:53.736Z,74.28
2019-03-22T23:32:22.174Z,73.64
2019-03-22T23:34:58.679Z,73.32
2019-03-22T23:37:20.732Z,74.76
2019-03-22T23:39:49.176Z,73.04
2019-03-22T23:42:17.572Z,74.99
2019-03-22T23:44:45.995Z,74.97
2019-03-22T23:47:14.474Z,75.30
2019-03-22T23:49:42.944Z,74.60
2019-03-22T23:52:11.355Z,74.90
2019-03-22T23:54:39.779Z,75.48
2019-03-22T23:57:08.266Z,76.08
2019-03-22T23:59:36.696Z,75.54
